Time;durP1;ratioP1;P1;durP2;ratioP2;P2;SDS_P1;SDS_P2;PMS_P1;PMS_P2;Temp;Humidity;BMP_temperature;BMP_pressure;BME280_temperature;BME280_humidity;BME280_pressure;Samples;Min_cycle;Max_cycle;Signal;HPM_P1;HPM_P2
2022/09/03 00:02:17;;;;;;;4.13;1.00;;;16.90;69.00;;;;;;5029726;28;20053;-53
2022/09/03 00:04:59;;;;;;;3.20;1.15;;;16.90;69.30;;;;;;5047099;28;20056;-53
2022/09/03 00:07:39;;;;;;;4.38;1.85;;;16.90;69.40;;;;;;5029006;28;20045;-53
2022/09/03 00:10:24;;;;;;;3.63;1.30;;;16.80;69.60;;;;;;5032166;28;20476;-54
2022/09/03 00:12:53;;;;;;;2.92;1.77;;;16.80;69.90;;;;;;5031645;28;20447;-53
2022/09/03 00:15:21;;;;;;;2.72;1.33;;;16.70;69.80;;;;;;5031718;28;20794;-53
2022/09/03 00:18:22;;;;;;;3.25;1.08;;;16.70;70.20;;;;;;5043546;28;20111;-66
2022/09/03 00:21:14;;;;;;;2.88;1.15;;;16.60;70.30;;;;;;5039346;28;20061;-53
2022/09/03 00:23:44;;;;;;;3.28;2.05;;;16.60;70.70;;;;;;5035529;28;20072;-53
2022/09/03 00:26:11;;;;;;;2.35;0.85;;;16.60;70.90;;;;;;5050247;28;20060;-52
2022/09/03 00:29:06;;;;;;;2.58;1.05;;;16.60;70.80;;;;;;5046519;28;20059;-52
2022/09/03 00:31:37;;;;;;;3.50;1.10;;;16.50;71.10;;;;;;5032688;28;20133;-54
2022/09/03 00:34:22;;;;;;;2.67;0.90;;;16.50;71.20;;;;;;5030843;28;20033;-53
2022/09/03 00:36:52;;;;;;;5.80;1.35;;;16.40;71.40;;;;;;5044228;28;20049;-52
2022/09/03 00:39:21;;;;;;;3.15;1.00;;;16.40;71.60;;;;;;5017333;28;20081;-52
2022/09/03 00:41:56;;;;;;;3.63;0.75;;;16.40;71.80;;;;;;5032363;28;20044;-54
2022/09/03 00:44:53;;;;;;;3.92;1.08;;;16.40;72.00;;;;;;5033027;28;20045;-52
2022/09/03 00:47:29;;;;;;;2.85;0.95;;;16.30;72.40;;;;;;5044543;28;20049;-66
2022/09/03 00:50:22;;;;;;;4.40;0.80;;;16.30;72.70;;;;;;5036779;28;20045;-66
2022/09/03 00:53:18;;;;;;;5.18;1.10;;;16.20;72.90;;;;;;5048177;28;20088;-66
2022/09/03 00:56:07;;;;;;;4.72;1.00;;;16.20;72.90;;;;;;5044935;28;20037;-66
2022/09/03 00:58:46;;;;;;;3.63;0.90;;;16.20;72.90;;;;;;5030007;28;20053;-66
2022/09/03 01:01:48;;;;;;;4.35;1.20;;;16.10;73.20;;;;;;5032201;28;20048;-67
2022/09/03 01:04:49;;;;;;;3.65;1.10;;;16.20;73.40;;;;;;5028605;28;20106;-66
2022/09/03 01:07:53;;;;;;;2.72;1.50;;;16.20;73.90;;;;;;5033056;28;20049;-66
2022/09/03 01:10:33;;;;;;;3.85;1.13;;;16.10;74.20;;;;;;5029867;28;20136;-66
2022/09/03 01:13:07;;;;;;;4.40;1.73;;;16.10;73.70;;;;;;5029436;28;20087;-66
2022/09/03 01:15:42;;;;;;;3.83;0.77;;;16.10;74.30;;;;;;5037261;28;20083;-66
2022/09/03 01:18:23;;;;;;;1.58;0.85;;;16.10;74.20;;;;;;5019781;28;20376;-66
2022/09/03 01:21:12;;;;;;;3.25;1.15;;;16.10;74.20;;;;;;5048921;28;20049;-66
2022/09/03 01:24:07;;;;;;;4.07;0.80;;;16.10;74.50;;;;;;5042821;28;20056;-65
2022/09/03 01:26:39;;;;;;;3.70;0.95;;;16.10;74.90;;;;;;5032710;28;20060;-66
2022/09/03 01:29:12;;;;;;;3.85;1.05;;;16.00;74.80;;;;;;5028870;28;20115;-66
2022/09/03 01:31:57;;;;;;;3.85;1.23;;;16.00;75.30;;;;;;5028831;28;20559;-67
2022/09/03 01:34:54;;;;;;;4.13;0.90;;;16.00;75.40;;;;;;5036284;28;20041;-66
2022/09/03 01:37:26;;;;;;;3.67;0.70;;;16.00;75.10;;;;;;5032968;28;20080;-66
2022/09/03 01:40:07;;;;;;;2.72;1.23;;;16.00;75.30;;;;;;5030709;28;20404;-66
2022/09/03 01:43:00;;;;;;;2.33;1.10;;;16.00;75.50;;;;;;5028301;28;20064;-51
2022/09/03 01:45:39;;;;;;;1.75;0.80;;;16.00;76.20;;;;;;5027122;28;20037;-53
2022/09/03 01:48:20;;;;;;;2.33;0.90;;;16.00;76.30;;;;;;5034304;28;20049;-53
2022/09/03 01:51:22;;;;;;;1.50;0.80;;;16.00;75.90;;;;;;5034509;28;20044;-66
2022/09/03 01:54:06;;;;;;;1.50;0.90;;;16.00;76.40;;;;;;5041279;28;20053;-66
2022/09/03 01:56:59;;;;;;;1.67;0.70;;;16.00;76.30;;;;;;5031313;28;20052;-67
2022/09/03 01:59:50;;;;;;;3.28;0.90;;;16.00;76.30;;;;;;5031688;28;20055;-66
2022/09/03 02:02:20;;;;;;;3.05;1.00;;;16.10;76.60;;;;;;5034858;28;20048;-65
2022/09/03 02:05:07;;;;;;;1.85;0.60;;;16.10;76.30;;;;;;5035625;28;20053;-67
2022/09/03 02:07:37;;;;;;;1.48;0.65;;;16.20;76.40;;;;;;5033944;28;20934;-66
2022/09/03 02:10:07;;;;;;;2.08;1.00;;;16.10;76.40;;;;;;5026879;28;20174;-66
2022/09/03 02:12:35;;;;;;;2.58;1.20;;;16.20;76.50;;;;;;5035767;28;20045;-66
2022/09/03 02:15:08;;;;;;;2.83;1.05;;;16.20;76.50;;;;;;5018282;28;20053;-50
2022/09/03 02:17:35;;;;;;;2.97;0.70;;;16.20;76.40;;;;;;5042011;28;20696;-50
2022/09/03 02:20:11;;;;;;;2.30;0.80;;;16.20;76.40;;;;;;5027929;28;20049;-54
2022/09/03 02:22:39;;;;;;;3.55;0.73;;;16.20;76.50;;;;;;5027510;28;20109;-53
2022/09/03 02:25:07;;;;;;;2.15;0.50;;;16.20;76.60;;;;;;5014850;28;20646;-53
2022/09/03 02:27:33;;;;;;;3.67;0.75;;;16.20;76.50;;;;;;5044071;28;20053;-52
2022/09/03 02:30:00;;;;;;;3.15;0.93;;;16.20;76.70;;;;;;5045033;28;20081;-54
2022/09/03 02:32:26;;;;;;;1.45;0.90;;;16.30;76.50;;;;;;5047101;28;20037;-51
2022/09/03 02:34:53;;;;;;;2.97;0.60;;;16.30;76.30;;;;;;5047063;28;20055;-51
2022/09/03 02:37:19;;;;;;;2.85;1.05;;;16.40;76.30;;;;;;5031392;28;20098;-48
2022/09/03 02:39:45;;;;;;;1.38;0.80;;;16.40;76.40;;;;;;5030360;28;20488;-49
2022/09/03 02:42:13;;;;;;;2.15;0.65;;;16.40;76.20;;;;;;5029545;28;20769;-54
2022/09/03 02:44:51;;;;;;;2.88;0.93;;;16.40;76.40;;;;;;5028628;28;20045;-54
2022/09/03 02:47:19;;;;;;;4.38;1.30;;;16.40;76.50;;;;;;5007704;28;20072;-67
2022/09/03 02:49:48;;;;;;;2.75;0.70;;;16.40;76.50;;;;;;5032173;28;20045;-67
2022/09/03 02:52:15;;;;;;;1.25;0.80;;;16.40;76.50;;;;;;5049436;28;20049;-66
2022/09/03 02:54:43;;;;;;;2.35;0.82;;;16.40;76.50;;;;;;5022462;28;20037;-66
2022/09/03 02:57:16;;;;;;;2.13;0.80;;;16.40;76.40;;;;;;5029412;28;20547;-66
2022/09/03 02:59:43;;;;;;;;;;;16.40;76.40;;;;;;5035745;28;20056;-66
2022/09/03 03:02:10;;;;;;;3.45;0.88;;;16.40;76.50;;;;;;5046399;28;20343;-66
2022/09/03 03:04:37;;;;;;;1.45;0.80;;;16.40;76.40;;;;;;5032016;28;20103;-67
2022/09/03 03:07:04;;;;;;;3.75;0.80;;;16.40;76.50;;;;;;5045263;28;20155;-67
2022/09/03 03:09:30;;;;;;;1.75;0.70;;;16.40;76.70;;;;;;5033124;28;20085;-66
2022/09/03 03:11:56;;;;;;;1.98;0.85;;;16.40;76.50;;;;;;5034962;28;20407;-67
2022/09/03 03:14:22;;;;;;;1.38;0.70;;;16.40;76.80;;;;;;5034416;28;20045;-67
2022/09/03 03:16:50;;;;;;;2.17;0.70;;;16.40;76.90;;;;;;5049960;28;20045;-67
2022/09/03 03:19:16;;;;;;;1.73;0.80;;;16.40;77.00;;;;;;5030962;28;20053;-67
2022/09/03 03:21:43;;;;;;;2.55;0.80;;;16.40;76.90;;;;;;5047590;28;20086;-66
2022/09/03 03:24:09;;;;;;;1.83;0.77;;;16.40;77.10;;;;;;5044451;28;20052;-66
2022/09/03 03:26:35;;;;;;;2.15;0.73;;;16.40;77.30;;;;;;5031405;28;20075;-54
2022/09/03 03:29:03;;;;;;;1.92;0.90;;;16.40;77.20;;;;;;5040880;28;20582;-53
2022/09/03 03:31:30;;;;;;;1.17;0.65;;;16.40;77.10;;;;;;5030963;28;20048;-53
2022/09/03 03:33:59;;;;;;;2.53;0.98;;;16.30;77.30;;;;;;5033969;28;20104;-51
2022/09/03 03:36:29;;;;;;;1.30;0.57;;;16.30;77.50;;;;;;5031457;28;20052;-53
2022/09/03 03:38:57;;;;;;;4.88;1.00;;;16.30;77.80;;;;;;5033862;28;20053;-66
2022/09/03 03:41:26;;;;;;;3.53;1.05;;;16.20;77.80;;;;;;5038038;28;20056;-52
2022/09/03 03:43:57;;;;;;;0.85;0.57;;;16.20;77.90;;;;;;5039240;28;20067;-66
2022/09/03 03:46:27;;;;;;;1.90;1.05;;;16.20;78.30;;;;;;5042912;28;20732;-66
2022/09/03 03:48:54;;;;;;;2.60;0.90;;;16.10;78.40;;;;;;5021522;28;20041;-66
2022/09/03 03:51:20;;;;;;;2.28;0.85;;;16.10;78.50;;;;;;5038345;28;20056;-54
2022/09/03 03:53:46;;;;;;;1.35;0.70;;;16.00;78.60;;;;;;5042333;28;20532;-53
2022/09/03 03:56:15;;;;;;;2.22;1.05;;;16.00;79.10;;;;;;5019093;28;20045;-51
2022/09/03 03:58:41;;;;;;;2.22;1.15;;;16.00;79.10;;;;;;5037585;28;20078;-53
2022/09/03 04:01:14;;;;;;;1.45;0.70;;;15.90;79.40;;;;;;5034931;28;20071;-55
2022/09/03 04:03:41;;;;;;;1.83;0.90;;;15.90;79.60;;;;;;5035720;28;20442;-52
2022/09/03 04:06:09;;;;;;;2.00;1.08;;;15.80;80.20;;;;;;5033463;28;20080;-51
2022/09/03 04:08:37;;;;;;;3.92;0.98;;;15.80;80.40;;;;;;5032297;28;20045;-66
2022/09/03 04:11:12;;;;;;;3.20;0.80;;;15.80;80.80;;;;;;5028761;28;20045;-53
2022/09/03 04:13:41;;;;;;;5.40;0.90;;;15.70;81.00;;;;;;5033293;28;20396;-66
2022/09/03 04:16:19;;;;;;;2.83;1.00;;;15.70;81.40;;;;;;5033846;28;20053;-67
2022/09/03 04:18:46;;;;;;;4.82;1.27;;;15.60;81.70;;;;;;5015866;28;20041;-51
2022/09/03 04:21:22;;;;;;;2.97;1.00;;;15.50;82.10;;;;;;5035609;28;20763;-49
2022/09/03 04:23:53;;;;;;;3.88;1.08;;;15.50;83.30;;;;;;5033532;28;20051;-51
2022/09/03 04:26:23;;;;;;;1.85;1.00;;;15.50;83.00;;;;;;5031659;28;20635;-50
2022/09/03 04:28:49;;;;;;;2.60;0.85;;;15.40;83.50;;;;;;5051786;28;20041;-53
2022/09/03 04:31:17;;;;;;;2.53;0.88;;;15.30;84.00;;;;;;5036137;28;20036;-54
2022/09/03 04:33:44;;;;;;;3.83;1.17;;;15.30;84.50;;;;;;5038287;28;20130;-55
2022/09/03 04:36:13;;;;;;;4.78;0.82;;;15.20;85.20;;;;;;5039132;28;20053;-53
2022/09/03 04:38:41;;;;;;;3.70;1.15;;;15.20;86.00;;;;;;5000908;28;20048;-52
2022/09/03 04:41:12;;;;;;;3.15;0.80;;;15.20;86.60;;;;;;5039445;28;20135;-54
2022/09/03 04:43:41;;;;;;;2.08;1.05;;;15.10;87.20;;;;;;5036942;28;20046;-51
2022/09/03 04:46:07;;;;;;;2.90;0.95;;;15.10;87.90;;;;;;5050322;28;20041;-53
2022/09/03 04:48:35;;;;;;;3.55;1.00;;;15.00;88.30;;;;;;5036261;28;20044;-56
2022/09/03 04:51:05;;;;;;;4.13;1.10;;;15.00;88.80;;;;;;5038838;28;21455;-53
2022/09/03 04:53:33;;;;;;;1.65;1.02;;;14.90;89.30;;;;;;5005925;28;20125;-55
2022/09/03 04:55:59;;;;;;;4.15;0.90;;;14.90;90.10;;;;;;5035859;28;20055;-54
2022/09/03 04:58:25;;;;;;;3.50;1.30;;;14.90;90.20;;;;;;5035617;28;20496;-53
2022/09/03 05:00:51;;;;;;;2.50;1.27;;;14.90;90.40;;;;;;5038617;28;20175;-52
2022/09/03 05:03:20;;;;;;;3.80;1.80;;;14.80;90.70;;;;;;5035472;28;20052;-51
2022/09/03 05:05:56;;;;;;;2.50;1.20;;;14.80;90.90;;;;;;5043435;28;20181;-54
2022/09/03 05:08:27;;;;;;;3.50;1.13;;;14.80;91.30;;;;;;5034727;28;20408;-52
2022/09/03 05:11:00;;;;;;;3.78;1.20;;;14.80;91.40;;;;;;5005016;28;20044;-48
2022/09/03 05:13:30;;;;;;;3.03;1.42;;;14.80;91.70;;;;;;5016585;28;20120;-50
2022/09/03 05:16:05;;;;;;;1.77;1.25;;;14.80;91.70;;;;;;5036595;28;20099;-54
2022/09/03 05:18:31;;;;;;;2.47;1.13;;;14.90;91.80;;;;;;5034317;28;20079;-54
2022/09/03 05:20:59;;;;;;;3.40;1.30;;;14.90;92.10;;;;;;5038602;28;21478;-55
2022/09/03 05:23:29;;;;;;;3.80;1.35;;;14.90;92.20;;;;;;5021480;28;20053;-53
2022/09/03 05:26:01;;;;;;;2.10;1.33;;;15.00;92.30;;;;;;5027464;28;20064;-55
2022/09/03 05:28:29;;;;;;;2.30;1.33;;;15.00;92.50;;;;;;5018846;28;20132;-53
2022/09/03 05:31:12;;;;;;;3.42;1.35;;;15.00;92.40;;;;;;5046910;28;20072;-66
2022/09/03 05:33:43;;;;;;;3.75;1.40;;;15.00;92.60;;;;;;5034400;28;20057;-66
2022/09/03 05:36:12;;;;;;;1.95;1.10;;;15.10;92.70;;;;;;5028563;28;20045;-68
2022/09/03 05:38:39;;;;;;;2.40;1.10;;;15.00;92.90;;;;;;5036052;28;20065;-66
2022/09/03 05:41:08;;;;;;;2.63;1.23;;;15.10;93.00;;;;;;5047132;28;20044;-66
2022/09/03 05:43:35;;;;;;;2.45;1.13;;;15.10;93.00;;;;;;5048248;28;20448;-65
2022/09/03 05:51:25;;;;;;;3.23;1.40;;;15.10;93.80;;;;;;5041250;28;20080;-65
2022/09/03 05:53:52;;;;;;;1.77;1.45;;;15.10;93.80;;;;;;5039776;28;20083;-65
2022/09/03 05:56:20;;;;;;;5.18;2.10;;;15.10;93.80;;;;;;5021756;28;20456;-65
2022/09/03 05:58:49;;;;;;;2.78;1.40;;;15.20;93.90;;;;;;5033980;28;20044;-65
2022/09/03 06:01:20;;;;;;;5.43;2.22;;;15.20;94.10;;;;;;5024779;28;20053;-65
2022/09/03 06:03:53;;;;;;;3.40;1.40;;;15.20;94.20;;;;;;5022225;28;20069;-67
2022/09/03 06:06:24;;;;;;;2.00;1.05;;;15.30;94.30;;;;;;5045380;28;20546;-65
2022/09/03 06:08:55;;;;;;;9.35;6.45;;;15.40;94.20;;;;;;5030682;28;20107;-66
2022/09/03 06:11:28;;;;;;;5.33;1.90;;;15.50;94.40;;;;;;5033704;28;20094;-61
2022/09/03 06:14:04;;;;;;;6.30;3.97;;;15.50;94.40;;;;;;5031976;28;20296;-64
2022/09/03 06:16:32;;;;;;;3.90;1.35;;;15.50;94.60;;;;;;5042842;28;20135;-65
2022/09/03 06:18:59;;;;;;;8.38;6.35;;;15.50;94.70;;;;;;5032628;28;20488;-65
2022/09/03 06:21:25;;;;;;;5.15;1.70;;;15.50;94.80;;;;;;5025683;28;20469;-62
2022/09/03 06:23:55;;;;;;;4.75;1.60;;;15.50;94.80;;;;;;5025918;28;20037;-64
2022/09/03 06:26:22;;;;;;;3.10;1.50;;;15.50;95.00;;;;;;5045497;28;20084;-52
2022/09/03 06:28:48;;;;;;;2.95;1.40;;;15.70;95.20;;;;;;5035945;28;20567;-52
2022/09/03 06:31:17;;;;;;;3.97;1.60;;;15.90;95.10;;;;;;5053843;28;20586;-53
2022/09/03 06:33:43;;;;;;;5.35;2.08;;;16.20;95.00;;;;;;5028437;28;20622;-52
2022/09/03 06:36:12;;;;;;;15.20;7.30;;;16.30;94.50;;;;;;5031600;28;20044;-53
2022/09/03 06:38:39;;;;;;;4.63;2.42;;;16.70;94.40;;;;;;5022349;28;20048;-50
2022/09/03 06:41:10;;;;;;;18.27;13.25;;;16.90;94.00;;;;;;5032519;28;20459;-55
2022/09/03 06:43:39;;;;;;;39.23;35.07;;;17.10;93.30;;;;;;5037362;28;20787;-54
2022/09/03 06:46:20;;;;;;;26.80;23.92;;;17.40;92.90;;;;;;5034286;28;20506;-55
2022/09/03 06:48:46;;;;;;;14.90;12.75;;;17.50;92.20;;;;;;5047908;28;20078;-55
2022/09/03 06:51:15;;;;;;;10.82;6.65;;;17.80;92.40;;;;;;5025964;28;20124;-52
2022/09/03 06:53:50;;;;;;;9.32;5.65;;;17.90;91.40;;;;;;5025927;28;20503;-55
2022/09/03 06:56:25;;;;;;;2.90;1.45;;;17.90;91.20;;;;;;5032483;28;20374;-59
2022/09/03 06:58:55;;;;;;;5.20;1.90;;;18.20;91.40;;;;;;5028504;28;20057;-55
2022/09/03 07:01:25;;;;;;;4.43;1.40;;;18.40;90.60;;;;;;5024300;28;20337;-55
2022/09/03 07:03:57;;;;;;;6.32;5.05;;;18.60;90.20;;;;;;5035421;28;20393;-59
2022/09/03 07:06:26;;;;;;;5.22;1.48;;;18.80;89.50;;;;;;5025838;28;20557;-58
2022/09/03 07:08:53;;;;;;;2.13;1.35;;;18.90;89.90;;;;;;5024443;28;20041;-63
2022/09/03 07:11:24;;;;;;;30.27;24.30;;;19.30;89.30;;;;;;5031184;28;20129;-61
2022/09/03 07:13:52;;;;;;;5.15;3.90;;;19.60;87.10;;;;;;5023050;28;20045;-61
2022/09/03 07:16:24;;;;;;;4.97;2.75;;;19.70;87.30;;;;;;5050743;28;20052;-62
2022/09/03 07:18:51;;;;;;;4.57;1.67;;;20.00;86.20;;;;;;5039302;28;20067;-61
2022/09/03 07:21:25;;;;;;;4.05;1.50;;;20.10;84.90;;;;;;5028870;28;20132;-64
2022/09/03 07:23:53;;;;;;;3.65;1.65;;;20.30;83.40;;;;;;5041774;28;20091;-64
2022/09/03 07:26:22;;;;;;;4.13;1.85;;;20.30;80.60;;;;;;5044157;28;20048;-63
2022/09/03 07:28:50;;;;;;;4.40;1.20;;;20.40;79.30;;;;;;5043215;28;20049;-64
2022/09/03 07:31:25;;;;;;;2.47;1.10;;;20.30;79.30;;;;;;5060621;28;20083;-65
2022/09/03 07:33:57;;;;;;;4.40;1.30;;;20.70;78.80;;;;;;5043062;28;20123;-66
2022/09/03 07:36:25;;;;;;;2.65;1.15;;;21.20;78.80;;;;;;5005341;28;20041;-66
2022/09/03 07:38:58;;;;;;;16.25;13.57;;;21.50;77.50;;;;;;5043885;28;20044;-64
2022/09/03 07:41:25;;;;;;;7.82;2.63;;;21.90;74.90;;;;;;5057609;28;20049;-65
2022/09/03 07:43:52;;;;;;;4.07;2.42;;;22.00;73.00;;;;;;5034002;28;20056;-63
2022/09/03 07:46:24;;;;;;;4.00;1.75;;;21.90;71.90;;;;;;5021786;28;20417;-67
2022/09/03 07:48:55;;;;;;;3.95;1.23;;;21.80;72.10;;;;;;5028435;28;20174;-52
2022/09/03 07:51:25;;;;;;;5.10;2.05;;;22.10;71.60;;;;;;5044972;28;20126;-65
2022/09/03 07:53:53;;;;;;;6.35;2.05;;;22.20;71.20;;;;;;5030174;28;20132;-65
2022/09/03 07:56:20;;;;;;;4.68;2.03;;;22.40;70.20;;;;;;5037208;28;20098;-65
2022/09/03 07:58:47;;;;;;;5.28;1.42;;;22.50;70.30;;;;;;5024918;28;20540;-50
2022/09/03 08:01:16;;;;;;;3.90;1.67;;;22.80;69.20;;;;;;5029053;28;20386;-54
2022/09/03 08:03:44;;;;;;;3.85;1.52;;;22.80;68.10;;;;;;5042452;28;20253;-51
2022/09/03 08:06:11;;;;;;;3.85;1.98;;;23.00;67.40;;;;;;5027128;28;20610;-51
2022/09/03 08:08:37;;;;;;;2.88;1.13;;;23.30;66.20;;;;;;5031461;28;20051;-52
2022/09/03 08:11:09;;;;;;;2.83;1.30;;;23.30;65.60;;;;;;5030483;28;20045;-64
2022/09/03 08:13:37;;;;;;;2.30;0.88;;;23.20;65.40;;;;;;5043692;28;20095;-54
2022/09/03 08:16:04;;;;;;;4.22;1.52;;;23.30;65.10;;;;;;4997107;28;20045;-55
2022/09/03 08:18:34;;;;;;;4.13;1.70;;;23.50;64.70;;;;;;5001784;28;20045;-54
2022/09/03 08:21:00;;;;;;;18.85;17.02;;;23.30;64.30;;;;;;5032251;28;20049;-66
2022/09/03 08:23:26;;;;;;;2.80;1.75;;;23.40;63.30;;;;;;5035546;28;20067;-65
2022/09/03 08:26:00;;;;;;;3.78;1.50;;;23.60;63.30;;;;;;5047263;28;20057;-53
2022/09/03 08:28:27;;;;;;;7.40;5.03;;;23.90;63.00;;;;;;5046405;28;20060;-53
2022/09/03 08:30:53;;;;;;;5.07;3.17;;;24.30;62.80;;;;;;5014488;28;20063;-66
2022/09/03 08:33:36;;;;;;;10.10;6.68;;;24.40;61.00;;;;;;5027244;28;20041;-65
2022/09/03 08:36:08;;;;;;;3.90;2.78;;;24.60;60.60;;;;;;5021916;28;20042;-65
2022/09/03 08:38:35;;;;;;;9.35;8.15;;;24.60;59.90;;;;;;5031114;28;20041;-62
2022/09/03 08:41:07;;;;;;;7.22;4.05;;;24.80;59.40;;;;;;5031224;28;20269;-64
2022/09/03 08:43:58;;;;;;;4.57;2.60;;;25.10;57.80;;;;;;5028106;28;20041;-64
2022/09/03 08:46:31;;;;;;;;;;;24.90;58.20;;;;;;5013131;28;20746;-64
2022/09/03 08:48:58;;;;;;;7.10;5.80;;;25.10;57.70;;;;;;5012440;28;19998;-52
2022/09/03 08:51:27;;;;;;;4.00;1.90;;;25.40;58.30;;;;;;5024202;28;20198;-47
2022/09/03 08:53:56;;;;;;;5.60;4.15;;;25.40;57.50;;;;;;5033475;28;20123;-44
2022/09/03 08:56:28;;;;;;;4.45;1.55;;;25.50;57.30;;;;;;5050977;28;20495;-43
2022/09/03 08:58:54;;;;;;;3.17;1.90;;;25.80;56.90;;;;;;5003389;28;20044;-44
2022/09/03 09:01:33;;;;;;;6.22;2.00;;;25.90;57.00;;;;;;5046019;28;20132;-44
2022/09/03 09:04:16;;;;;;;5.43;0.95;;;25.90;56.90;;;;;;5036863;28;20067;-45
2022/09/03 09:07:15;;;;;;;5.43;1.08;;;26.50;55.30;;;;;;5030392;28;20459;-42
2022/09/03 09:10:15;;;;;;;4.50;1.80;;;26.50;54.90;;;;;;5030645;28;20057;-43
2022/09/03 09:13:15;;;;;;;4.80;1.40;;;26.90;55.30;;;;;;5034882;28;20194;-43
2022/09/03 09:16:01;;;;;;;3.55;1.60;;;27.00;53.90;;;;;;5025551;28;21827;-51
2022/09/03 09:18:55;;;;;;;3.72;1.40;;;27.30;54.10;;;;;;5015252;28;20119;-53
2022/09/03 09:21:33;;;;;;;3.08;1.00;;;27.40;52.60;;;;;;5047633;28;20082;-53
2022/09/03 09:24:03;;;;;;;7.60;1.13;;;27.60;52.50;;;;;;5043852;28;20883;-54
2022/09/03 09:26:30;;;;;;;3.42;1.17;;;27.90;51.70;;;;;;5030884;28;20780;-54
2022/09/03 09:29:05;;;;;;;3.50;1.15;;;27.80;51.50;;;;;;5019783;28;20091;-52
2022/09/03 09:31:32;;;;;;;5.78;1.10;;;27.80;52.00;;;;;;5039257;28;20109;-52
2022/09/03 09:34:06;;;;;;;6.57;1.50;;;28.10;51.20;;;;;;5036415;28;20034;-45
2022/09/03 09:36:53;;;;;;;2.70;1.08;;;28.00;51.30;;;;;;5046823;28;20051;-43
2022/09/03 09:39:20;;;;;;;4.78;0.95;;;28.10;50.60;;;;;;5035627;28;20781;-43
2022/09/03 09:42:08;;;;;;;4.30;1.10;;;28.10;50.10;;;;;;5033229;28;20052;-45
2022/09/03 09:44:36;;;;;;;3.67;1.30;;;28.20;49.90;;;;;;5028203;28;20445;-57
2022/09/03 09:47:16;;;;;;;4.15;1.00;;;28.30;50.20;;;;;;5047586;28;20478;-57
2022/09/03 09:49:52;;;;;;;2.45;1.00;;;28.60;49.40;;;;;;5033927;28;20630;-57
2022/09/03 09:52:20;;;;;;;5.97;1.35;;;28.20;48.90;;;;;;5031327;28;20498;-57
2022/09/03 09:54:47;;;;;;;6.30;5.07;;;28.70;49.60;;;;;;5015160;28;20041;-57
2022/09/03 09:57:24;;;;;;;8.57;7.07;;;28.70;48.20;;;;;;5036132;28;20045;-57
2022/09/03 10:00:11;;;;;;;5.47;4.78;;;28.60;49.10;;;;;;5035555;28;20515;-58
2022/09/03 10:02:41;;;;;;;26.95;24.45;;;29.20;48.50;;;;;;5032591;28;21331;-52
2022/09/03 10:05:23;;;;;;;3.47;1.05;;;29.70;48.70;;;;;;5048664;28;20045;-57
2022/09/03 10:07:58;;;;;;;3.15;1.10;;;29.60;46.20;;;;;;5036991;28;20052;-57
2022/09/03 10:10:26;;;;;;;2.08;1.02;;;29.90;46.30;;;;;;5039490;28;20094;-57
2022/09/03 10:13:08;;;;;;;6.18;1.00;;;29.60;46.10;;;;;;5052598;28;20053;-50
2022/09/03 10:15:50;;;;;;;3.28;1.00;;;29.80;46.30;;;;;;5034901;28;20053;-57
2022/09/03 10:18:40;;;;;;;1.98;0.90;;;29.90;46.00;;;;;;5044605;28;20053;-58
2022/09/03 10:21:16;;;;;;;3.72;0.90;;;29.60;45.90;;;;;;5045992;28;20508;-58
2022/09/03 10:24:20;;;;;;;3.25;1.17;;;30.20;44.90;;;;;;5017010;28;20068;-58
2022/09/03 10:26:46;;;;;;;1.33;0.80;;;30.60;45.30;;;;;;5024284;28;20471;-58
2022/09/03 10:29:21;;;;;;;2.08;0.73;;;30.40;45.10;;;;;;5038167;28;20506;-58
2022/09/03 10:31:52;;;;;;;2.33;0.80;;;31.00;44.90;;;;;;5030860;28;20501;-58
2022/09/03 10:34:42;;;;;;;5.63;1.05;;;30.80;43.20;;;;;;5026150;28;20135;-58
2022/09/03 10:37:40;;;;;;;2.45;0.90;;;30.70;44.00;;;;;;5027280;28;20124;-47
2022/09/03 10:40:14;;;;;;;2.08;1.05;;;30.40;43.00;;;;;;5028620;28;20493;-58
2022/09/03 10:42:47;;;;;;;9.13;4.50;;;30.60;43.50;;;;;;5031989;28;20130;-55
2022/09/03 10:45:17;;;;;;;3.72;2.30;;;30.40;43.00;;;;;;5029425;28;20052;-56
2022/09/03 10:48:06;;;;;;;10.45;5.90;;;30.10;43.50;;;;;;5034200;28;20528;-58
2022/09/03 10:50:48;;;;;;;4.32;1.63;;;30.10;43.10;;;;;;5034820;28;20052;-58
2022/09/03 10:53:33;;;;;;;2.00;1.27;;;30.00;43.00;;;;;;5038451;28;20040;-57
2022/09/03 10:56:31;;;;;;;4.97;2.35;;;30.60;43.40;;;;;;5038127;28;20053;-58
2022/09/03 10:59:13;;;;;;;3.88;1.58;;;30.70;42.60;;;;;;5056655;28;20558;-58
2022/09/03 11:02:16;;;;;;;4.70;3.10;;;30.70;42.70;;;;;;5043701;28;20040;-59
2022/09/03 11:04:59;;;;;;;6.45;5.78;;;30.40;42.30;;;;;;5048271;28;20541;-58
2022/09/03 11:07:40;;;;;;;17.13;13.00;;;30.50;41.90;;;;;;5040145;28;20079;-58
2022/09/03 11:10:33;;;;;;;16.20;12.70;;;30.70;41.10;;;;;;5036427;28;20098;-58
2022/09/03 11:13:02;;;;;;;9.52;7.55;;;30.90;41.40;;;;;;5041495;28;20582;-58
2022/09/03 11:15:49;;;;;;;3.67;2.75;;;31.00;41.50;;;;;;5039795;28;20096;-58
2022/09/03 11:18:21;;;;;;;14.65;13.27;;;31.00;41.00;;;;;;5031278;28;20148;-46
2022/09/03 11:20:49;;;;;;;4.72;3.42;;;30.70;41.50;;;;;;5029277;28;20131;-47
2022/09/03 11:23:18;;;;;;;5.22;1.55;;;30.60;41.20;;;;;;5027461;28;20049;-44
2022/09/03 11:25:53;;;;;;;3.72;1.70;;;31.00;41.10;;;;;;5031354;28;20443;-46
2022/09/03 11:28:43;;;;;;;4.13;0.98;;;31.10;41.00;;;;;;5028274;28;20471;-46
2022/09/03 11:31:23;;;;;;;7.32;6.05;;;30.90;39.70;;;;;;5047835;28;20049;-47
2022/09/03 11:34:13;;;;;;;5.40;1.20;;;30.70;40.50;;;;;;5029949;28;20053;-46
2022/09/03 11:36:40;;;;;;;7.97;5.05;;;30.70;40.20;;;;;;5025001;28;20518;-49
2022/09/03 11:39:26;;;;;;;2.83;1.40;;;31.00;41.30;;;;;;5030505;28;20045;-45
2022/09/03 11:42:06;;;;;;;6.70;1.48;;;31.00;40.00;;;;;;5045606;28;20103;-48
2022/09/03 11:44:38;;;;;;;3.45;1.00;;;31.00;39.90;;;;;;5045830;28;20052;-47
2022/09/03 11:47:36;;;;;;;5.03;1.20;;;31.20;39.90;;;;;;5028988;28;20520;-47
2022/09/03 11:50:19;;;;;;;3.03;1.00;;;31.30;39.10;;;;;;5029079;28;20052;-46
2022/09/03 11:52:46;;;;;;;2.70;0.90;;;31.70;39.10;;;;;;5035109;28;20702;-46
2022/09/03 11:55:32;;;;;;;3.80;0.93;;;31.10;39.50;;;;;;5034936;28;20093;-45
2022/09/03 11:58:29;;;;;;;3.70;1.25;;;30.80;39.10;;;;;;5035876;28;20072;-58
2022/09/03 12:01:00;;;;;;;3.75;0.90;;;30.90;39.60;;;;;;5033678;28;20053;-47
2022/09/03 12:03:42;;;;;;;2.83;1.00;;;30.40;39.40;;;;;;5046985;28;20042;-44
2022/09/03 12:06:08;;;;;;;3.20;1.10;;;30.70;39.80;;;;;;5037444;28;20107;-58
2022/09/03 12:08:43;;;;;;;1.02;0.70;;;31.20;39.40;;;;;;5051880;28;20057;-59
2022/09/03 12:11:29;;;;;;;3.30;1.00;;;31.30;38.80;;;;;;5038869;28;20086;-59
2022/09/03 12:14:12;;;;;;;2.60;0.93;;;31.20;38.90;;;;;;5032422;28;20053;-49
2022/09/03 12:17:06;;;;;;;2.00;0.80;;;31.30;39.70;;;;;;5030971;28;20072;-58
2022/09/03 12:19:44;;;;;;;5.95;1.85;;;31.20;38.50;;;;;;5043965;28;20045;-58
2022/09/03 12:22:15;;;;;;;10.27;9.25;;;31.00;38.40;;;;;;5037855;28;20053;-46
2022/09/03 12:24:43;;;;;;;6.88;4.15;;;31.50;38.10;;;;;;5035963;28;20053;-46
2022/09/03 12:27:25;;;;;;;6.90;4.22;;;30.90;38.20;;;;;;5038179;28;20077;-59
2022/09/03 12:30:00;;;;;;;5.13;2.53;;;31.00;38.80;;;;;;5024692;28;20083;-59
2022/09/03 12:32:35;;;;;;;5.68;2.00;;;31.20;38.30;;;;;;5047555;28;20124;-59
2022/09/03 12:35:23;;;;;;;3.13;1.23;;;31.10;38.40;;;;;;5049387;28;20045;-58
2022/09/03 12:37:51;;;;;;;5.05;4.15;;;31.30;38.00;;;;;;5033592;28;20049;-58
2022/09/03 12:40:29;;;;;;;4.70;3.58;;;31.80;38.50;;;;;;5039728;28;20191;-58
2022/09/03 12:43:14;;;;;;;4.97;2.53;;;32.20;37.70;;;;;;5035523;28;20156;-57
2022/09/03 12:45:49;;;;;;;3.08;1.17;;;32.50;38.30;;;;;;5033611;28;20972;-59
2022/09/03 12:48:18;;;;;;;19.40;17.55;;;32.00;38.40;;;;;;5044474;28;20041;-59
2022/09/03 12:50:46;;;;;;;3.33;1.83;;;32.10;37.40;;;;;;5037534;28;20596;-59
2022/09/03 12:53:17;;;;;;;3.83;2.05;;;32.20;37.10;;;;;;5032160;28;20048;-59
2022/09/03 12:56:00;;;;;;;3.13;0.80;;;32.30;37.10;;;;;;5016622;28;20273;-60
2022/09/03 12:58:36;;;;;;;3.22;1.30;;;32.30;36.60;;;;;;5038686;28;20424;-59
2022/09/03 13:01:17;;;;;;;3.85;1.10;;;31.90;37.30;;;;;;5054015;28;20052;-59
2022/09/03 13:03:49;;;;;;;4.57;1.15;;;31.80;37.20;;;;;;5035990;28;20048;-59
2022/09/03 13:06:21;;;;;;;3.17;0.95;;;32.10;38.20;;;;;;5057254;28;20061;-60
2022/09/03 13:08:51;;;;;;;7.35;1.67;;;32.30;37.20;;;;;;5048113;28;20056;-45
2022/09/03 13:11:20;;;;;;;4.57;2.83;;;32.40;36.70;;;;;;5056625;28;20041;-49
2022/09/03 13:14:09;;;;;;;4.65;2.10;;;32.10;36.90;;;;;;5008103;28;20059;-47
2022/09/03 13:16:45;;;;;;;3.58;1.40;;;32.30;37.20;;;;;;5059217;28;20056;-59
2022/09/03 13:19:36;;;;;;;4.03;1.05;;;32.50;36.20;;;;;;5058326;28;20553;-60
2022/09/03 13:22:14;;;;;;;3.72;1.40;;;32.60;36.60;;;;;;5042070;28;20401;-59
2022/09/03 13:24:43;;;;;;;3.38;1.00;;;32.80;36.40;;;;;;5057298;28;20041;-60
2022/09/03 13:27:23;;;;;;;2.03;0.95;;;32.80;36.10;;;;;;5051295;28;20083;-47
2022/09/03 13:30:33;;;;;;;3.67;1.08;;;33.00;37.30;;;;;;5028871;28;20414;-44